Time;durP1;ratioP1;P1;durP2;ratioP2;P2;SDS_P1;SDS_P2;PMS_P1;PMS_P2;Temp;Humidity;BMP_temperature;BMP_pressure;BME280_temperature;BME280_humidity;BME280_pressure;Samples;Min_cycle;Max_cycle;Signal;HPM_P1;HPM_P2
2023/03/04 00:01:32;;;;;;;58.42;31.63;;;2.30;79.30;;;;;;5011291;28;20486;-61
2023/03/04 00:03:58;;;;;;;64.38;33.63;;;2.20;79.40;;;;;;5014899;28;20038;-60
2023/03/04 00:06:23;;;;;;;61.58;31.58;;;2.20;79.50;;;;;;5014534;28;20061;-61
2023/03/04 00:08:49;;;;;;;60.75;31.00;;;2.20;79.50;;;;;;5013881;28;20132;-60
2023/03/04 00:11:14;;;;;;;64.60;31.90;;;2.20;79.60;;;;;;5015652;28;20038;-60
2023/03/04 00:13:40;;;;;;;62.30;30.83;;;2.20;79.70;;;;;;5009210;28;20049;-59
2023/03/04 00:16:06;;;;;;;58.22;29.30;;;2.10;79.70;;;;;;5000599;28;20437;-60
2023/03/04 00:18:31;;;;;;;59.80;30.50;;;2.10;79.60;;;;;;5008009;28;20041;-61
2023/03/04 00:20:57;;;;;;;53.70;29.90;;;2.10;79.60;;;;;;5000688;28;20493;-59
2023/03/04 00:23:22;;;;;;;58.28;31.08;;;2.10;79.60;;;;;;5009801;28;20183;-57
2023/03/04 00:25:48;;;;;;;63.40;30.00;;;2.10;79.60;;;;;;5009728;28;20069;-60
2023/03/04 00:28:14;;;;;;;62.00;30.67;;;2.10;79.60;;;;;;5003127;28;20411;-60
2023/03/04 00:30:39;;;;;;;61.25;30.48;;;2.00;79.50;;;;;;5006809;28;20038;-61
2023/03/04 00:33:05;;;;;;;62.00;31.20;;;2.00;79.50;;;;;;5004834;28;20030;-61
2023/03/04 00:35:30;;;;;;;62.85;32.05;;;2.00;79.50;;;;;;5004809;28;20500;-60
2023/03/04 00:37:56;;;;;;;62.95;31.55;;;2.00;79.50;;;;;;5006026;28;20044;-60
2023/03/04 00:40:21;;;;;;;61.75;31.85;;;2.00;79.80;;;;;;5004536;28;20038;-61
2023/03/04 00:42:47;;;;;;;59.22;31.05;;;2.00;79.90;;;;;;5003954;28;20045;-60
2023/03/04 00:45:13;;;;;;;61.78;31.20;;;1.90;80.00;;;;;;5010437;28;20108;-61
2023/03/04 00:47:38;;;;;;;59.38;30.25;;;1.90;80.00;;;;;;5005556;28;20029;-59
2023/03/04 00:50:04;;;;;;;56.95;29.77;;;1.90;80.70;;;;;;5005010;28;20029;-56
2023/03/04 00:52:30;;;;;;;59.72;29.25;;;1.90;79.90;;;;;;5002703;28;21249;-60
2023/03/04 00:54:55;;;;;;;60.50;31.05;;;1.90;79.90;;;;;;5008570;28;20033;-60
2023/03/04 00:57:21;;;;;;;60.97;30.58;;;1.90;79.90;;;;;;5016813;28;20021;-59
2023/03/04 00:59:46;;;;;;;59.08;30.65;;;1.90;79.80;;;;;;5016345;28;20128;-60
2023/03/04 01:02:12;;;;;;;55.60;28.17;;;1.90;79.70;;;;;;5010966;28;20065;-62
2023/03/04 01:04:38;;;;;;;59.75;29.58;;;1.90;79.70;;;;;;5012111;28;20589;-60
2023/03/04 01:07:04;;;;;;;55.75;27.73;;;1.80;79.70;;;;;;5014857;28;20034;-61
2023/03/04 01:09:30;;;;;;;54.95;28.33;;;1.90;79.70;;;;;;5012783;28;20128;-61
2023/03/04 01:11:55;;;;;;;56.28;28.77;;;1.90;79.70;;;;;;5001612;28;20094;-61
2023/03/04 01:14:21;;;;;;;56.00;29.98;;;1.90;79.70;;;;;;5004076;28;20042;-61
2023/03/04 01:16:48;;;;;;;58.40;30.08;;;1.80;79.50;;;;;;5006660;28;22818;-61
2023/03/04 01:19:13;;;;;;;54.30;28.48;;;1.90;79.50;;;;;;5008966;28;20424;-60
2023/03/04 01:21:39;;;;;;;62.70;29.85;;;1.90;79.50;;;;;;5003179;28;20354;-60
2023/03/04 01:24:05;;;;;;;59.92;29.58;;;1.80;79.50;;;;;;5005662;28;20041;-61
2023/03/04 01:26:30;;;;;;;60.50;29.10;;;1.80;79.60;;;;;;5009000;28;20124;-60
2023/03/04 01:28:56;;;;;;;60.03;30.27;;;1.80;79.60;;;;;;5006609;28;20509;-60
2023/03/04 01:31:21;;;;;;;60.22;31.02;;;1.80;79.60;;;;;;5012676;28;20505;-61
2023/03/04 01:33:47;;;;;;;59.13;29.75;;;1.80;79.70;;;;;;5012706;28;20050;-60
2023/03/04 01:36:13;;;;;;;62.70;29.75;;;1.80;79.50;;;;;;5008035;28;20026;-60
2023/03/04 01:38:38;;;;;;;61.97;30.83;;;1.80;79.50;;;;;;5007050;28;22379;-60
2023/03/04 01:41:04;;;;;;;57.97;29.98;;;1.80;79.40;;;;;;5007365;28;20033;-59
2023/03/04 01:43:31;;;;;;;59.63;29.27;;;1.80;79.20;;;;;;5008058;28;20045;-59
2023/03/04 01:45:57;;;;;;;57.75;29.45;;;1.80;79.10;;;;;;5007201;28;20072;-61
2023/03/04 01:48:30;;;;;;;60.50;30.00;;;1.80;78.90;;;;;;5011743;28;20038;-57
2023/03/04 01:50:58;;;;;;;61.72;29.35;;;1.80;78.80;;;;;;5007135;28;20125;-57
2023/03/04 01:53:25;;;;;;;56.33;29.17;;;1.70;78.70;;;;;;5006701;28;20049;-59
2023/03/04 01:55:53;;;;;;;57.83;29.85;;;1.70;78.70;;;;;;5011846;28;20038;-59
2023/03/04 01:58:19;;;;;;;55.10;29.08;;;1.70;78.80;;;;;;5008140;28;20291;-58
2023/03/04 02:00:45;;;;;;;57.92;29.17;;;1.60;78.80;;;;;;5007204;28;20034;-60
2023/03/04 02:03:14;;;;;;;55.90;28.65;;;1.70;79.00;;;;;;5010224;28;20037;-60
2023/03/04 02:05:44;;;;;;;57.63;29.75;;;1.70;79.00;;;;;;5011590;28;20034;-59
2023/03/04 02:08:10;;;;;;;57.45;28.83;;;1.60;78.80;;;;;;5010538;28;20041;-60
2023/03/04 02:10:37;;;;;;;56.78;29.75;;;1.60;78.80;;;;;;5013078;28;20082;-59
2023/03/04 02:13:03;;;;;;;53.42;27.67;;;1.60;78.80;;;;;;5012627;28;20034;-59
2023/03/04 02:15:29;;;;;;;58.30;28.50;;;1.60;78.80;;;;;;5015902;28;20034;-59
2023/03/04 02:17:55;;;;;;;59.05;29.05;;;1.60;78.90;;;;;;5017522;28;20038;-60
2023/03/04 02:21:03;;;;;;;59.45;28.83;;;1.60;78.80;;;;;;5015516;28;20033;-61
2023/03/04 02:23:46;;;;;;;57.67;28.83;;;1.60;79.10;;;;;;5015140;28;20129;-56
2023/03/04 02:26:15;;;;;;;55.65;28.17;;;1.50;78.90;;;;;;5016243;28;20124;-59
2023/03/04 02:28:40;;;;;;;59.05;28.80;;;1.60;78.70;;;;;;5012412;28;20060;-60
2023/03/04 02:31:16;;;;;;;56.70;29.02;;;1.50;78.60;;;;;;5007421;28;20401;-60
2023/03/04 02:33:41;;;;;;;57.20;28.25;;;1.50;78.60;;;;;;5014108;28;20038;-60
2023/03/04 02:36:09;;;;;;;52.30;26.80;;;1.50;78.60;;;;;;5013675;28;20037;-60
2023/03/04 02:38:34;;;;;;;52.47;27.52;;;1.50;78.70;;;;;;5015312;28;20121;-60
2023/03/04 02:41:00;;;;;;;54.38;27.63;;;1.50;78.60;;;;;;5013737;28;20167;-61
2023/03/04 02:43:26;;;;;;;54.72;27.83;;;1.50;78.50;;;;;;5011904;28;20486;-61
2023/03/04 02:45:51;;;;;;;53.75;28.02;;;1.50;78.50;;;;;;5007371;28;20048;-58
2023/03/04 02:48:20;;;;;;;59.92;28.33;;;1.40;78.50;;;;;;5011956;28;20041;-59
2023/03/04 02:50:54;;;;;;;52.35;27.50;;;1.40;78.50;;;;;;5012108;28;20041;-60
2023/03/04 02:53:21;;;;;;;58.30;28.90;;;1.40;78.60;;;;;;5010092;28;20444;-61
2023/03/04 02:55:47;;;;;;;55.67;27.92;;;1.40;78.60;;;;;;5011882;28;20030;-59
2023/03/04 02:58:13;;;;;;;56.60;29.30;;;1.40;78.40;;;;;;5010023;28;20531;-59
2023/03/04 03:00:39;;;;;;;56.10;28.48;;;1.40;78.50;;;;;;5010951;28;21222;-59
2023/03/04 03:03:05;;;;;;;58.67;28.65;;;1.40;78.50;;;;;;5009441;28;20034;-60
2023/03/04 03:05:34;;;;;;;57.60;28.92;;;1.40;78.40;;;;;;5013985;28;20508;-61
2023/03/04 03:08:00;;;;;;;53.05;27.95;;;1.40;78.30;;;;;;5010986;28;20665;-60
2023/03/04 03:10:26;;;;;;;57.35;28.20;;;1.40;78.30;;;;;;5013306;28;20025;-59
2023/03/04 03:12:52;;;;;;;61.20;28.70;;;1.30;78.30;;;;;;5008417;28;20623;-60
2023/03/04 03:15:17;;;;;;;52.60;26.63;;;1.30;78.20;;;;;;5013377;28;20037;-59
2023/03/04 03:17:43;;;;;;;56.03;27.92;;;1.30;78.30;;;;;;5012894;28;20125;-60
2023/03/04 03:20:11;;;;;;;54.65;27.63;;;1.20;78.30;;;;;;5016250;28;20441;-60
2023/03/04 03:22:37;;;;;;;51.70;26.67;;;1.20;78.50;;;;;;5013582;28;20032;-60
2023/03/04 03:25:04;;;;;;;52.22;27.52;;;1.20;78.50;;;;;;5016461;28;20053;-61
2023/03/04 03:27:29;;;;;;;53.53;27.02;;;1.20;78.40;;;;;;5014370;28;20034;-60
2023/03/04 03:29:55;;;;;;;54.92;28.08;;;1.20;78.30;;;;;;5008385;28;20092;-60
2023/03/04 03:32:20;;;;;;;53.20;27.13;;;1.20;78.30;;;;;;5007528;28;20044;-60
2023/03/04 03:34:46;;;;;;;53.70;27.27;;;1.10;78.30;;;;;;5009431;28;20112;-58
2023/03/04 03:37:12;;;;;;;57.03;29.30;;;1.10;78.30;;;;;;5010856;28;20034;-60
2023/03/04 03:39:37;;;;;;;55.85;27.80;;;1.10;78.40;;;;;;5008869;28;20034;-60
2023/03/04 03:42:03;;;;;;;59.50;28.55;;;1.10;78.50;;;;;;5009230;28;20042;-60
2023/03/04 03:44:28;;;;;;;51.45;27.38;;;1.10;78.40;;;;;;5011594;28;20056;-60
2023/03/04 03:46:54;;;;;;;55.15;28.02;;;1.10;78.50;;;;;;5012264;28;20144;-60
2023/03/04 03:49:20;;;;;;;51.67;27.35;;;1.10;78.50;;;;;;5008297;28;20042;-61
2023/03/04 03:51:46;;;;;;;56.15;27.30;;;1.10;78.60;;;;;;5009961;28;20038;-60
2023/03/04 03:54:12;;;;;;;50.95;27.20;;;1.10;78.40;;;;;;5014850;28;20181;-60
2023/03/04 03:56:38;;;;;;;59.28;29.30;;;1.10;78.30;;;;;;5013901;28;21058;-59
2023/03/04 03:59:03;;;;;;;53.08;27.27;;;1.10;78.10;;;;;;5012252;28;20775;-60
2023/03/04 04:01:29;;;;;;;52.70;26.65;;;1.10;78.10;;;;;;5007371;28;20053;-60
2023/03/04 04:03:55;;;;;;;61.38;28.15;;;1.10;78.10;;;;;;5003265;28;20051;-60
2023/03/04 04:06:20;;;;;;;59.00;29.45;;;1.10;78.10;;;;;;5011350;28;20038;-59
2023/03/04 04:08:46;;;;;;;56.85;28.80;;;1.00;78.20;;;;;;5010383;28;20406;-61
2023/03/04 04:11:12;;;;;;;56.75;27.58;;;1.00;78.30;;;;;;5011963;28;20568;-59
2023/03/04 04:13:38;;;;;;;55.97;28.55;;;1.00;78.30;;;;;;5012747;28;20113;-60
2023/03/04 04:16:04;;;;;;;59.45;29.10;;;1.00;78.40;;;;;;5012288;28;20041;-60
2023/03/04 04:18:30;;;;;;;53.88;27.35;;;1.00;78.40;;;;;;5015581;28;20056;-60
2023/03/04 04:20:56;;;;;;;55.58;28.05;;;1.00;78.50;;;;;;5014818;28;20520;-60
2023/03/04 04:23:21;;;;;;;50.33;26.83;;;1.00;78.50;;;;;;5011652;28;20041;-60
2023/03/04 04:25:47;;;;;;;53.63;27.33;;;1.00;78.50;;;;;;5013218;28;20394;-58
2023/03/04 04:28:13;;;;;;;56.08;28.70;;;1.00;78.30;;;;;;5013076;28;20022;-61
2023/03/04 04:30:39;;;;;;;54.42;27.95;;;1.00;78.20;;;;;;5003188;28;20029;-60
2023/03/04 04:33:05;;;;;;;59.90;29.30;;;1.00;78.10;;;;;;5006808;28;20626;-60
2023/03/04 04:35:32;;;;;;;58.30;27.58;;;0.90;78.10;;;;;;5008582;28;20056;-60
2023/03/04 04:37:57;;;;;;;54.35;27.02;;;0.90;78.20;;;;;;5008311;28;20164;-58
2023/03/04 04:40:23;;;;;;;57.03;28.42;;;0.90;78.30;;;;;;5011368;28;20108;-60
2023/03/04 04:42:48;;;;;;;57.63;28.58;;;0.90;78.30;;;;;;5007902;28;20064;-58
2023/03/04 04:45:15;;;;;;;56.40;27.83;;;0.90;78.30;;;;;;5010405;28;20045;-60
2023/03/04 04:47:41;;;;;;;53.55;27.50;;;0.90;78.30;;;;;;5011848;28;20072;-61
2023/03/04 04:50:07;;;;;;;55.78;27.52;;;0.90;78.20;;;;;;5003411;28;20042;-60
2023/03/04 04:52:32;;;;;;;53.00;27.38;;;0.90;78.20;;;;;;5003813;28;20041;-60
2023/03/04 04:54:58;;;;;;;53.67;27.50;;;0.80;78.10;;;;;;5007679;28;20382;-60
2023/03/04 04:57:24;;;;;;;54.78;27.73;;;0.80;78.00;;;;;;5011914;28;20482;-60
2023/03/04 04:59:49;;;;;;;56.35;27.77;;;0.70;78.10;;;;;;5009018;28;20117;-61
2023/03/04 05:02:15;;;;;;;53.28;26.85;;;0.80;78.30;;;;;;5003308;28;20042;-61
2023/03/04 05:04:40;;;;;;;52.45;26.63;;;0.80;78.30;;;;;;5006373;28;20047;-59
2023/03/04 05:07:06;;;;;;;54.67;26.77;;;0.70;78.20;;;;;;5008459;28;20100;-58
2023/03/04 05:09:32;;;;;;;60.70;27.98;;;0.70;78.20;;;;;;5004806;28;20037;-60
2023/03/04 05:11:57;;;;;;;55.03;27.90;;;0.70;78.30;;;;;;5004774;28;20061;-59
2023/03/04 05:14:23;;;;;;;54.80;28.27;;;0.70;78.50;;;;;;5006764;28;20057;-60
2023/03/04 05:16:51;;;;;;;62.65;28.95;;;0.80;78.50;;;;;;5008759;28;20124;-58
2023/03/04 05:19:17;;;;;;;58.92;28.20;;;0.80;78.80;;;;;;5006774;28;20026;-59
2023/03/04 05:21:43;;;;;;;58.75;28.92;;;0.80;78.90;;;;;;5006704;28;20673;-60
2023/03/04 05:24:08;;;;;;;56.15;28.27;;;0.80;79.00;;;;;;5007518;28;20498;-59
2023/03/04 05:26:34;;;;;;;55.47;27.50;;;0.80;78.80;;;;;;5005793;28;20044;-59
2023/03/04 05:28:59;;;;;;;58.97;29.42;;;0.80;78.60;;;;;;5010134;28;20171;-61
2023/03/04 05:31:25;;;;;;;57.78;28.25;;;0.80;78.80;;;;;;5005498;28;20045;-60
2023/03/04 05:33:51;;;;;;;58.85;28.75;;;0.80;78.90;;;;;;5002540;28;20084;-57
2023/03/04 05:36:16;;;;;;;59.40;30.08;;;0.80;79.10;;;;;;5003258;28;20030;-58
2023/03/04 05:38:42;;;;;;;57.03;29.65;;;0.80;79.00;;;;;;5005062;28;20030;-58
2023/03/04 05:41:07;;;;;;;60.17;29.92;;;0.80;78.90;;;;;;5005591;28;20056;-59
2023/03/04 05:43:35;;;;;;;57.50;28.67;;;0.80;78.80;;;;;;5005979;28;20260;-59
2023/03/04 05:46:02;;;;;;;60.33;30.27;;;0.80;78.80;;;;;;5002439;28;20165;-58
2023/03/04 05:48:28;;;;;;;54.95;28.55;;;0.80;79.00;;;;;;5002658;28;20254;-58
2023/03/04 05:50:59;;;;;;;60.38;29.58;;;0.80;79.10;;;;;;5003498;28;20045;-58
2023/03/04 05:53:26;;;;;;;62.92;30.10;;;0.80;79.10;;;;;;5006442;28;20457;-59
2023/03/04 05:55:52;;;;;;;59.38;30.13;;;0.80;79.00;;;;;;5004658;28;20052;-58
2023/03/04 05:58:18;;;;;;;59.80;30.35;;;0.80;79.00;;;;;;5004172;28;20114;-59
2023/03/04 06:00:44;;;;;;;62.40;29.80;;;0.80;79.00;;;;;;5004722;28;20041;-58
2023/03/04 06:03:21;;;;;;;56.75;30.85;;;0.80;78.90;;;;;;5007762;28;20132;-58
2023/03/04 06:05:47;;;;;;;61.58;30.80;;;0.80;79.00;;;;;;5008471;28;20033;-58
2023/03/04 06:08:13;;;;;;;58.00;29.17;;;0.80;78.90;;;;;;5008355;28;20502;-58
2023/03/04 06:10:40;;;;;;;64.43;30.85;;;0.90;79.00;;;;;;5006083;28;20115;-59
2023/03/04 06:13:06;;;;;;;56.80;29.60;;;0.90;78.80;;;;;;5011166;28;20103;-58
2023/03/04 06:15:32;;;;;;;59.63;31.48;;;0.90;78.80;;;;;;5014143;28;20483;-60
2023/03/04 06:17:57;;;;;;;59.47;30.77;;;0.90;78.80;;;;;;5015867;28;20038;-60
2023/03/04 06:20:23;;;;;;;63.22;32.05;;;0.90;78.90;;;;;;5015481;28;20029;-59
2023/03/04 06:22:49;;;;;;;55.05;29.60;;;0.90;78.80;;;;;;5017024;28;20038;-59
2023/03/04 06:25:14;;;;;;;61.67;31.98;;;0.90;78.90;;;;;;5016790;28;20041;-61
2023/03/04 06:27:40;;;;;;;61.88;31.52;;;0.90;79.00;;;;;;5009000;28;20036;-60
2023/03/04 06:30:06;;;;;;;59.03;30.95;;;0.90;79.00;;;;;;5007662;28;20029;-60
2023/03/04 06:32:32;;;;;;;62.90;31.52;;;0.90;79.20;;;;;;5007585;28;20087;-60
2023/03/04 06:34:57;;;;;;;63.75;32.75;;;0.90;79.20;;;;;;5011405;28;20279;-56
2023/03/04 06:37:23;;;;;;;66.60;31.50;;;1.00;79.30;;;;;;5011106;28;20045;-59
2023/03/04 06:39:48;;;;;;;64.38;32.20;;;1.00;79.30;;;;;;5010241;28;20034;-61
2023/03/04 06:42:14;;;;;;;62.95;31.83;;;1.00;79.40;;;;;;5006544;28;20034;-60
2023/03/04 06:44:40;;;;;;;58.60;30.58;;;1.00;80.40;;;;;;5003372;28;20045;-58
2023/03/04 06:47:06;;;;;;;61.38;31.10;;;1.00;79.60;;;;;;5008135;28;20473;-60
2023/03/04 06:49:32;;;;;;;59.70;30.73;;;1.00;79.50;;;;;;5007014;28;20045;-60
2023/03/04 06:51:57;;;;;;;64.72;32.20;;;1.10;79.50;;;;;;5008602;28;20048;-59
2023/03/04 06:54:23;;;;;;;60.05;31.98;;;1.10;79.70;;;;;;5008258;28;20096;-60
2023/03/04 06:56:49;;;;;;;64.10;33.53;;;1.10;79.90;;;;;;5005533;28;20117;-59
2023/03/04 06:59:14;;;;;;;67.63;34.13;;;1.10;80.00;;;;;;5004817;28;20034;-61
2023/03/04 07:01:40;;;;;;;66.07;33.67;;;1.10;80.20;;;;;;4988778;28;20065;-59
2023/03/04 07:04:06;;;;;;;64.45;34.55;;;1.10;80.30;;;;;;5006200;28;20509;-59
2023/03/04 07:06:32;;;;;;;65.90;33.60;;;1.10;80.40;;;;;;4999702;28;20050;-59
2023/03/04 07:08:58;;;;;;;62.35;32.17;;;1.10;80.40;;;;;;5006939;28;20390;-60
2023/03/04 07:11:23;;;;;;;65.68;33.72;;;1.10;80.60;;;;;;5009341;28;20042;-60
2023/03/04 07:13:49;;;;;;;72.93;34.13;;;1.20;80.80;;;;;;5011981;28;20048;-60
2023/03/04 07:16:19;;;;;;;66.35;34.25;;;1.20;81.00;;;;;;4999690;28;20049;-61
2023/03/04 07:18:46;;;;;;;66.90;34.58;;;1.30;81.20;;;;;;5005276;28;20092;-58
2023/03/04 07:21:13;;;;;;;66.28;33.67;;;1.30;81.10;;;;;;5009229;28;20057;-58
2023/03/04 07:23:39;;;;;;;69.05;34.50;;;1.40;81.30;;;;;;5007648;28;20058;-61
2023/03/04 07:26:05;;;;;;;76.57;36.22;;;1.40;81.30;;;;;;5005613;28;20129;-60
2023/03/04 07:28:31;;;;;;;72.63;35.85;;;1.50;81.40;;;;;;5008778;28;20045;-60
2023/03/04 07:31:06;;;;;;;68.88;35.58;;;1.50;81.60;;;;;;5009588;28;20041;-59
2023/03/04 07:33:31;;;;;;;68.32;35.15;;;1.50;81.60;;;;;;5006320;28;20030;-59
2023/03/04 07:35:58;;;;;;;68.18;34.72;;;1.60;81.80;;;;;;5002791;28;20864;-59
2023/03/04 07:38:24;;;;;;;67.47;34.05;;;1.60;81.90;;;;;;5009624;28;20091;-60
2023/03/04 07:40:58;;;;;;;65.75;34.83;;;1.70;82.00;;;;;;5004544;28;20468;-59
2023/03/04 07:43:24;;;;;;;;;;;1.70;82.30;;;;;;5003641;28;20568;-58
2023/03/04 07:45:50;;;;;;;66.32;31.15;;;1.80;82.90;;;;;;5005993;28;19921;-60
2023/03/04 07:48:15;;;;;;;68.32;33.78;;;1.80;81.60;;;;;;5004200;28;20112;-60
2023/03/04 07:50:41;;;;;;;73.65;33.70;;;1.90;81.80;;;;;;4999067;28;20037;-60
2023/03/04 07:53:06;;;;;;;65.18;32.70;;;1.90;81.80;;;;;;5004844;28;20038;-59
2023/03/04 07:55:33;;;;;;;65.28;33.88;;;2.00;82.00;;;;;;4997723;28;20041;-58
2023/03/04 07:57:58;;;;;;;68.85;34.90;;;2.10;82.10;;;;;;5010957;28;20037;-61
2023/03/04 08:00:24;;;;;;;70.45;35.75;;;2.10;82.20;;;;;;5009210;28;20490;-60
2023/03/04 08:02:50;;;;;;;74.53;36.80;;;2.20;82.30;;;;;;4995740;28;20383;-58
2023/03/04 08:05:15;;;;;;;77.78;37.35;;;2.30;82.30;;;;;;5002764;28;20080;-60
2023/03/04 08:07:41;;;;;;;72.97;36.25;;;2.30;82.40;;;;;;5010025;28;20057;-58
2023/03/04 08:10:07;;;;;;;79.35;39.67;;;2.40;82.50;;;;;;5002400;28;20052;-59
2023/03/04 08:12:34;;;;;;;78.72;38.72;;;2.50;82.70;;;;;;4995440;28;20397;-60
2023/03/04 08:15:00;;;;;;;76.40;37.38;;;2.60;83.00;;;;;;5002386;28;20029;-60
2023/03/04 08:17:28;;;;;;;77.45;37.22;;;2.60;83.00;;;;;;4995678;28;20509;-60
2023/03/04 08:19:54;;;;;;;73.22;36.03;;;2.70;83.20;;;;;;5000222;28;20034;-61
2023/03/04 08:22:20;;;;;;;77.43;38.03;;;2.80;83.00;;;;;;5007515;28;20046;-61
2023/03/04 08:24:45;;;;;;;74.63;37.20;;;2.90;83.00;;;;;;5009905;28;20038;-59
2023/03/04 08:27:11;;;;;;;72.45;38.15;;;2.90;83.00;;;;;;5007312;28;20037;-59
2023/03/04 08:29:36;;;;;;;75.68;36.88;;;2.90;83.00;;;;;;5001840;28;20091;-58
2023/03/04 08:32:02;;;;;;;71.57;35.38;;;3.00;83.00;;;;;;5009490;28;20034;-58
2023/03/04 08:34:28;;;;;;;71.72;35.72;;;3.10;82.80;;;;;;5009371;28;20065;-58
2023/03/04 08:36:54;;;;;;;76.47;36.15;;;3.20;82.80;;;;;;5010786;28;20033;-60
2023/03/04 08:39:20;;;;;;;69.95;34.25;;;3.20;82.60;;;;;;5005864;28;20564;-59
2023/03/04 08:41:46;;;;;;;71.28;34.85;;;3.30;82.50;;;;;;5008845;28;20037;-60
2023/03/04 08:44:12;;;;;;;73.03;35.05;;;3.40;82.40;;;;;;5005450;28;20620;-60
2023/03/04 08:46:39;;;;;;;70.18;34.05;;;3.40;82.40;;;;;;5006012;28;20090;-58
2023/03/04 08:49:06;;;;;;;74.30;36.30;;;3.50;82.50;;;;;;5005666;28;20033;-59
2023/03/04 08:51:34;;;;;;;71.88;34.83;;;3.60;83.50;;;;;;5007116;28;20096;-60
2023/03/04 08:54:03;;;;;;;70.63;35.47;;;3.70;82.80;;;;;;5010254;28;20037;-60
2023/03/04 08:56:28;;;;;;;70.55;34.75;;;3.80;82.60;;;;;;5008294;28;20081;-59
2023/03/04 08:58:54;;;;;;;70.53;34.22;;;3.90;82.50;;;;;;5008845;28;20498;-56
2023/03/04 09:01:20;;;;;;;69.47;34.10;;;3.90;82.30;;;;;;5004511;28;20038;-61
2023/03/04 09:03:45;;;;;;;65.82;33.67;;;4.00;82.20;;;;;;5007968;28;20095;-59
2023/03/04 09:06:14;;;;;;;67.60;32.35;;;4.10;82.20;;;;;;5008005;28;20040;-60
2023/03/04 09:08:39;;;;;;;63.10;33.33;;;4.20;82.10;;;;;;5010048;28;20124;-60
2023/03/04 09:11:05;;;;;;;62.90;33.03;;;4.30;82.00;;;;;;5004694;28;20117;-59
2023/03/04 09:13:31;;;;;;;63.35;32.03;;;4.40;81.60;;;;;;5002904;28;20084;-57
2023/03/04 09:15:58;;;;;;;60.42;32.47;;;4.50;81.50;;;;;;5006272;28;20127;-60
2023/03/04 09:18:24;;;;;;;68.90;34.80;;;4.60;81.30;;;;;;5010407;28;20033;-59
2023/03/04 09:20:50;;;;;;;63.88;33.03;;;4.70;81.20;;;;;;5000896;28;20041;-56
2023/03/04 09:23:16;;;;;;;66.55;34.70;;;4.70;81.20;;;;;;5002765;28;20030;-59
2023/03/04 09:28:18;;;;;;;65.68;34.65;;;4.80;80.60;;;;;;5767409;23;20050;-60
2023/03/04 09:30:44;;;;;;;72.43;33.65;;;4.90;80.50;;;;;;4943204;28;20082;-58
2023/03/04 09:33:10;;;;;;;69.63;34.60;;;4.90;80.40;;;;;;4967019;28;20059;-59
2023/03/04 09:35:35;;;;;;;64.82;32.80;;;5.00;80.40;;;;;;4963666;28;20405;-59
2023/03/04 09:38:01;;;;;;;65.60;33.38;;;5.10;80.00;;;;;;4959250;28;20065;-59
2023/03/04 09:40:31;;;;;;;70.13;33.45;;;5.10;79.90;;;;;;4956895;28;20047;-61
2023/03/04 09:43:04;;;;;;;67.30;34.70;;;5.20;79.90;;;;;;4959176;28;20122;-60
2023/03/04 09:45:43;;;;;;;63.83;33.78;;;5.30;79.80;;;;;;4960581;28;20114;-61
2023/03/04 09:48:12;;;;;;;63.75;33.25;;;5.30;79.50;;;;;;4966750;28;20238;-56
2023/03/04 09:50:46;;;;;;;65.35;32.47;;;5.40;79.30;;;;;;4955830;28;20035;-60
2023/03/04 09:53:32;;;;;;;71.32;36.17;;;5.40;79.20;;;;;;4961227;28;20268;-59
2023/03/04 09:55:58;;;;;;;66.95;33.63;;;5.50;79.00;;;;;;4956362;28;20498;-60
2023/03/04 09:58:45;;;;;;;65.90;34.10;;;5.50;79.20;;;;;;4955786;28;20046;-58
2023/03/04 10:01:45;;;;;;;65.93;34.85;;;5.60;78.80;;;;;;4958861;28;20035;-60
2023/03/04 10:04:31;;;;;;;62.17;33.95;;;5.70;78.30;;;;;;4960462;28;20043;-61
2023/03/04 10:06:56;;;;;;;60.45;32.20;;;5.80;78.10;;;;;;4962296;28;20046;-60
2023/03/04 10:09:42;;;;;;;68.40;32.58;;;5.80;79.10;;;;;;4960812;28;20109;-61
2023/03/04 10:12:14;;;;;;;59.83;31.67;;;5.90;78.00;;;;;;4957575;28;20397;-62
2023/03/04 10:14:40;;;;;;;64.40;33.58;;;5.90;78.10;;;;;;4955930;28;20061;-59
2023/03/04 10:17:12;;;;;;;60.65;32.40;;;6.00;78.30;;;;;;4960445;28;20110;-60
2023/03/04 10:19:47;;;;;;;60.40;32.55;;;6.10;78.40;;;;;;4956646;28;20038;-61
2023/03/04 10:22:25;;;;;;;64.53;32.15;;;6.10;78.50;;;;;;4959558;28;20461;-60
2023/03/04 10:24:54;;;;;;;57.63;31.40;;;6.20;78.30;;;;;;4955035;28;20568;-58
2023/03/04 10:27:22;;;;;;;59.03;31.95;;;6.30;78.30;;;;;;4960769;28;20038;-61
2023/03/04 10:29:48;;;;;;;59.38;31.60;;;6.30;78.30;;;;;;4958403;28;20121;-59
2023/03/04 10:32:16;;;;;;;61.85;32.03;;;6.40;78.30;;;;;;4966246;28;20264;-59
2023/03/04 10:34:42;;;;;;;62.50;33.83;;;6.40;78.10;;;;;;4965418;28;20031;-58
2023/03/04 10:37:08;;;;;;;67.68;34.50;;;6.50;78.00;;;;;;4963883;28;20035;-59
2023/03/04 10:39:42;;;;;;;61.40;33.45;;;6.60;77.90;;;;;;4963565;28;20544;-58
2023/03/04 10:42:13;;;;;;;58.50;32.17;;;6.60;77.60;;;;;;4967971;28;20039;-59
2023/03/04 10:44:54;;;;;;;57.50;32.50;;;6.70;77.70;;;;;;4967188;28;20042;-59
2023/03/04 10:47:31;;;;;;;55.85;31.70;;;6.80;77.60;;;;;;4967679;28;20125;-59
2023/03/04 10:49:59;;;;;;;59.15;32.05;;;6.80;77.40;;;;;;4964153;28;20121;-59
2023/03/04 10:52:30;;;;;;;57.50;31.05;;;6.90;77.20;;;;;;4967741;28;20409;-60
2023/03/04 10:55:22;;;;;;;63.55;33.90;;;6.90;76.60;;;;;;4965774;28;20031;-60
2023/03/04 10:57:54;;;;;;;59.67;33.53;;;7.00;75.80;;;;;;4963955;28;20110;-60
2023/03/04 11:00:28;;;;;;;53.15;30.45;;;7.10;75.90;;;;;;4967491;28;20101;-59
2023/03/04 11:03:19;;;;;;;58.60;31.30;;;7.10;76.00;;;;;;4965143;28;20034;-60
2023/03/04 11:05:45;;;;;;;59.70;31.55;;;7.20;75.80;;;;;;4965856;28;20023;-60
2023/03/04 11:08:18;;;;;;;55.92;31.33;;;7.20;76.40;;;;;;4965674;28;20130;-58
2023/03/04 11:10:44;;;;;;;56.20;30.40;;;7.30;75.60;;;;;;4964489;28;20130;-61
2023/03/04 11:13:10;;;;;;;59.50;30.10;;;7.40;75.80;;;;;;4965420;28;20050;-59
2023/03/04 11:15:51;;;;;;;57.45;31.42;;;7.40;75.70;;;;;;4966771;28;20030;-59
2023/03/04 11:18:25;;;;;;;57.25;30.65;;;7.50;74.70;;;;;;4965224;28;20038;-57
2023/03/04 11:20:52;;;;;;;53.35;28.95;;;7.60;75.10;;;;;;4965956;28;20505;-58
2023/03/04 11:23:33;;;;;;;53.38;29.90;;;7.60;74.90;;;;;;4966291;28;20551;-61
2023/03/04 11:26:06;;;;;;;53.42;29.90;;;7.70;74.20;;;;;;4963822;28;20066;-60
2023/03/04 11:28:47;;;;;;;65.50;34.30;;;7.80;74.50;;;;;;4966066;28;20675;-58
2023/03/04 11:31:22;;;;;;;68.50;35.45;;;7.90;73.70;;;;;;4967197;28;20050;-57
2023/03/04 11:34:10;;;;;;;65.72;35.33;;;8.00;73.70;;;;;;4965775;28;20409;-59
2023/03/04 11:36:56;;;;;;;59.95;32.20;;;8.00;73.10;;;;;;4966786;28;20118;-60
2023/03/04 11:39:39;;;;;;;57.28;29.02;;;8.10;72.70;;;;;;4964538;28;20122;-59
2023/03/04 11:42:12;;;;;;;47.88;27.85;;;8.20;72.70;;;;;;4966314;28;20042;-58
2023/03/04 11:44:40;;;;;;;50.25;28.45;;;8.20;73.00;;;;;;4964828;28;20406;-57
2023/03/04 11:47:11;;;;;;;50.30;28.13;;;8.30;72.80;;;;;;4966728;28;20101;-59
2023/03/04 11:50:28;;;;;;;50.53;28.17;;;8.30;72.40;;;;;;4964658;28;20062;-58
2023/03/04 11:53:12;;;;;;;47.53;26.33;;;8.40;71.20;;;;;;4937495;28;20093;-60
2023/03/04 11:56:18;;;;;;;48.28;27.80;;;8.50;72.10;;;;;;4963693;28;20034;-60
2023/03/04 11:59:27;;;;;;;46.13;26.42;;;8.50;71.10;;;;;;4962942;28;20038;-59
2023/03/04 12:02:20;;;;;;;46.00;25.95;;;8.50;71.40;;;;;;4901096;29;20052;-59
2023/03/04 12:04:52;;;;;;;43.50;23.83;;;8.60;70.40;;;;;;4960506;28;20039;-60
2023/03/04 12:07:55;;;;;;;42.80;22.75;;;8.60;68.60;;;;;;4963786;28;20038;-56
2023/03/04 12:10:26;;;;;;;40.95;22.95;;;8.70;68.10;;;;;;4967166;28;20035;-60
2023/03/04 12:13:24;;;;;;;35.55;20.35;;;8.70;68.50;;;;;;4973000;28;20048;-58
2023/03/04 12:16:31;;;;;;;26.95;15.18;;;8.70;66.40;;;;;;4968463;28;20073;-60
2023/03/04 12:19:25;;;;;;;25.33;14.60;;;8.80;64.40;;;;;;4927359;28;20046;-59
2023/03/04 12:21:54;;;;;;;27.33;14.88;;;8.80;65.40;;;;;;4974452;28;20038;-60
2023/03/04 12:24:28;;;;;;;29.48;16.27;;;8.90;66.20;;;;;;4972389;28;20041;-59
2023/03/04 12:27:00;;;;;;;27.63;16.10;;;8.90;63.50;;;;;;4970313;28;20477;-58
2023/03/04 12:29:55;;;;;;;28.27;15.48;;;9.00;63.80;;;;;;4972314;28;20488;-60
2023/03/04 12:32:23;;;;;;;29.13;16.70;;;9.00;65.50;;;;;;4966075;28;20042;-59
2023/03/04 12:35:14;;;;;;;31.45;16.60;;;9.00;62.90;;;;;;4969139;28;20039;-58
2023/03/04 12:37:57;;;;;;;31.92;18.35;;;9.10;63.80;;;;;;4964550;28;20035;-58
2023/03/04 12:40:47;;;;;;;29.40;16.52;;;9.10;64.20;;;;;;4973110;28;20026;-59
2023/03/04 12:43:30;;;;;;;31.15;17.63;;;9.10;64.10;;;;;;4957541;28;20042;-60
2023/03/04 12:46:18;;;;;;;31.23;17.45;;;9.20;62.00;;;;;;4965236;28;20080;-57
2023/03/04 12:49:15;;;;;;;31.13;17.27;;;9.10;61.90;;;;;;4965916;28;20031;-59
2023/03/04 12:51:56;;;;;;;28.80;16.73;;;9.10;61.30;;;;;;4963887;28;20045;-58